createdAt,value
2019-03-24T00:00:30.053Z,8.60
2019-03-24T00:02:59.350Z,8.60
2019-03-24T00:05:28.634Z,8.40
2019-03-24T00:07:57.925Z,8.50
2019-03-24T00:10:27.206Z,8.50
2019-03-24T00:12:56.610Z,8.40
2019-03-24T00:15:26.777Z,8.40
2019-03-24T00:17:56.279Z,8.40
2019-03-24T00:20:25.537Z,8.30
2019-03-24T00:22:54.837Z,8.20
2019-03-24T00:25:24.106Z,8.30
2019-03-24T00:27:54.232Z,8.30
2019-03-24T00:30:23.514Z,8.30
2019-03-24T00:32:53.168Z,8.10
2019-03-24T00:35:22.508Z,8.10
2019-03-24T00:37:51.810Z,8.10
2019-03-24T00:40:21.098Z,8.20
2019-03-24T00:42:50.394Z,8.20
2019-03-24T00:45:19.661Z,8.20
2019-03-24T00:47:49.566Z,8.10
2019-03-24T00:50:18.936Z,8.20
2019-03-24T00:52:48.226Z,8.20
2019-03-24T00:55:17.530Z,8.10
2019-03-24T00:57:46.809Z,8.00
2019-03-24T01:00:16.748Z,7.90
2019-03-24T01:02:46.030Z,8.00
2019-03-24T01:05:15.398Z,8.00
2019-03-24T01:07:44.749Z,8.10
2019-03-24T01:10:14.277Z,8.00
2019-03-24T01:12:43.557Z,8.00
2019-03-24T01:15:12.972Z,7.90
2019-03-24T01:17:42.273Z,7.80
2019-03-24T01:20:11.812Z,7.90
2019-03-24T01:22:42.058Z,7.80
2019-03-24T01:25:11.438Z,7.90
2019-03-24T01:27:40.724Z,7.80
2019-03-24T01:30:10.555Z,7.80
2019-03-24T01:32:39.835Z,7.70
2019-03-24T01:35:09.275Z,7.60
2019-03-24T01:37:38.559Z,7.60
2019-03-24T01:40:08.303Z,7.70
2019-03-24T01:42:37.579Z,7.70
2019-03-24T01:45:09.795Z,7.60
2019-03-24T01:47:39.102Z,7.60
2019-03-24T01:50:10.013Z,7.70
2019-03-24T01:52:39.294Z,7.60
2019-03-24T01:55:08.963Z,7.60
2019-03-24T01:57:38.247Z,7.60
2019-03-24T02:00:08.882Z,7.70
2019-03-24T02:02:38.192Z,7.70
2019-03-24T02:05:08.241Z,7.70
2019-03-24T02:07:37.550Z,7.70
2019-03-24T02:10:07.668Z,7.60
2019-03-24T02:12:37.921Z,7.70
2019-03-24T02:15:08.308Z,7.60
2019-03-24T02:17:37.615Z,7.60
2019-03-24T02:20:07.234Z,7.40
2019-03-24T02:22:36.526Z,7.30
2019-03-24T02:25:06.147Z,7.30
2019-03-24T02:27:35.593Z,7.40
2019-03-24T02:30:12.089Z,7.40
2019-03-24T02:32:41.390Z,7.50
2019-03-24T02:35:10.851Z,7.60
2019-03-24T02:37:40.143Z,7.50
2019-03-24T02:40:09.763Z,7.50
2019-03-24T02:42:39.107Z,7.60
2019-03-24T02:45:09.030Z,7.60
2019-03-24T02:47:38.386Z,7.50
2019-03-24T02:50:08.219Z,7.40
2019-03-24T02:52:37.494Z,7.40
2019-03-24T02:55:07.631Z,7.20
2019-03-24T02:57:37.900Z,7.10
2019-03-24T03:00:09.730Z,7.00
2019-03-24T03:02:39.012Z,6.90
2019-03-24T03:05:08.755Z,7.00
2019-03-24T03:07:39.103Z,7.00
2019-03-24T03:10:09.349Z,7.00
2019-03-24T03:12:38.691Z,7.00
2019-03-24T03:15:09.797Z,7.10
2019-03-24T03:17:39.133Z,7.00
2019-03-24T03:20:08.986Z,7.00
2019-03-24T03:22:38.293Z,7.00
2019-03-24T03:25:08.375Z,7.00
2019-03-24T03:27:37.720Z,7.00
2019-03-24T03:30:08.263Z,6.90
2019-03-24T03:32:37.678Z,6.90
2019-03-24T03:35:08.594Z,6.80
2019-03-24T03:37:37.902Z,6.80
2019-03-24T03:40:08.016Z,6.70
2019-03-24T03:42:39.288Z,6.70
2019-03-24T03:45:09.932Z,6.70
2019-03-24T03:47:39.764Z,6.60
2019-03-24T03:50:09.376Z,6.70
2019-03-24T03:52:38.655Z,6.60
2019-03-24T03:55:08.101Z,6.50
2019-03-24T03:57:37.377Z,6.50
2019-03-24T04:00:07.763Z,6.50
2019-03-24T04:02:37.070Z,6.50
2019-03-24T04:05:07.715Z,6.40
2019-03-24T04:07:37.061Z,6.40
2019-03-24T04:10:07.103Z,6.30
2019-03-24T04:12:36.413Z,6.30
2019-03-24T04:15:07.306Z,6.40
2019-03-24T04:17:36.597Z,6.30
2019-03-24T04:20:06.225Z,6.30
2019-03-24T04:22:35.604Z,6.30
2019-03-24T04:25:09.058Z,6.30
2019-03-24T04:27:38.371Z,6.30
2019-03-24T04:30:09.351Z,6.30
2019-03-24T04:32:38.650Z,6.30
2019-03-24T04:35:08.467Z,6.20
2019-03-24T04:37:40.535Z,6.20
2019-03-24T04:40:09.951Z,6.20
2019-03-24T04:42:39.266Z,6.20
2019-03-24T04:45:09.082Z,6.10
2019-03-24T04:47:38.406Z,6.10
2019-03-24T04:50:08.320Z,6.10
2019-03-24T04:52:37.617Z,6.10
2019-03-24T04:55:07.138Z,6.10
2019-03-24T04:57:36.983Z,6.00
2019-03-24T05:00:09.747Z,6.00
2019-03-24T05:02:39.132Z,6.10
2019-03-24T05:05:08.846Z,6.00
2019-03-24T05:07:39.187Z,6.10
2019-03-24T05:10:20.003Z,5.90
2019-03-24T05:12:49.286Z,6.60
2019-03-24T05:15:19.571Z,5.90
2019-03-24T05:17:48.846Z,6.00
2019-03-24T05:20:18.156Z,6.00
2019-03-24T05:22:48.170Z,6.00
2019-03-24T05:25:17.472Z,6.00
2019-03-24T05:27:46.750Z,6.00
2019-03-24T05:30:16.127Z,6.10
2019-03-24T05:32:45.414Z,6.00
2019-03-24T05:35:14.717Z,6.10
2019-03-24T05:37:44.008Z,6.00
2019-03-24T05:40:13.451Z,6.10
2019-03-24T05:42:42.718Z,6.10
2019-03-24T05:45:12.014Z,6.10
2019-03-24T05:47:41.298Z,6.10
2019-03-24T05:50:11.045Z,6.20
2019-03-24T05:52:40.321Z,6.20
2019-03-24T05:55:09.857Z,6.20
2019-03-24T05:57:39.134Z,6.30
2019-03-24T06:00:09.547Z,6.20
2019-03-24T06:02:38.826Z,6.30
2019-03-24T06:05:08.313Z,6.40
2019-03-24T06:07:37.590Z,6.50
2019-03-24T06:10:07.252Z,6.70
2019-03-24T06:12:36.526Z,6.80
2019-03-24T06:15:08.412Z,6.80
2019-03-24T06:17:47.495Z,7.00
2019-03-24T06:20:09.221Z,7.10
2019-03-24T06:22:38.502Z,7.30
2019-03-24T06:25:09.021Z,7.20
2019-03-24T06:27:38.391Z,7.30
2019-03-24T06:30:08.510Z,7.50
2019-03-24T06:32:37.818Z,7.60
2019-03-24T06:35:07.235Z,7.70
2019-03-24T06:37:37.506Z,7.80
2019-03-24T06:40:07.035Z,8.00
2019-03-24T06:42:36.348Z,8.40
2019-03-24T06:45:06.768Z,8.60
2019-03-24T06:47:36.338Z,9.00
2019-03-24T06:50:10.598Z,9.10
2019-03-24T06:52:44.297Z,9.00
2019-03-24T06:55:13.570Z,9.20
2019-03-24T06:57:43.044Z,9.50
2019-03-24T07:00:16.714Z,9.40
2019-03-24T07:02:50.432Z,9.20
2019-03-24T07:05:20.706Z,9.10
2019-03-24T07:07:49.988Z,9.00
2019-03-24T07:10:19.284Z,9.30
2019-03-24T07:12:48.610Z,9.50
2019-03-24T07:15:18.036Z,9.60
2019-03-24T07:17:48.292Z,9.90
2019-03-24T07:20:17.675Z,10.20
2019-03-24T07:22:46.960Z,10.40
2019-03-24T07:25:16.267Z,10.90
2019-03-24T07:27:45.551Z,11.50
2019-03-24T07:30:14.999Z,11.80
2019-03-24T07:32:44.283Z,12.80
2019-03-24T07:35:13.638Z,13.70
2019-03-24T07:40:27.066Z,13.20
2019-03-24T07:42:56.380Z,12.50
2019-03-24T07:45:25.688Z,12.20
2019-03-24T07:47:54.970Z,12.30
2019-03-24T07:50:24.382Z,12.70
2019-03-24T07:52:53.663Z,12.70
2019-03-24T07:55:22.949Z,12.60
2019-03-24T07:57:52.254Z,12.80
2019-03-24T08:00:32.497Z,13.00
2019-03-24T08:03:01.779Z,13.20
2019-03-24T08:05:31.082Z,13.50
2019-03-24T08:08:00.361Z,13.60
2019-03-24T08:10:29.671Z,13.70
2019-03-24T08:12:58.959Z,14.50
2019-03-24T08:15:28.273Z,15.20
2019-03-24T08:17:57.561Z,15.70
2019-03-24T08:20:27.528Z,15.60
2019-03-24T08:22:56.806Z,15.90
2019-03-24T08:25:26.110Z,16.80
2019-03-24T08:27:55.477Z,17.10
2019-03-24T08:30:32.912Z,16.50
2019-03-24T08:33:02.259Z,17.10
2019-03-24T08:35:31.570Z,16.70
2019-03-24T08:38:00.852Z,16.40
2019-03-24T08:40:30.161Z,15.80
2019-03-24T08:42:59.447Z,15.80
2019-03-24T08:45:29.994Z,16.20
2019-03-24T08:47:59.351Z,17.10
2019-03-24T08:50:28.810Z,17.30
2019-03-24T08:52:58.175Z,16.70
2019-03-24T08:55:27.618Z,16.30
2019-03-24T08:57:56.902Z,15.40
2019-03-24T09:00:30.461Z,14.40
2019-03-24T09:02:57.202Z,14.20
2019-03-24T09:05:26.490Z,14.20
2019-03-24T09:07:55.802Z,14.00
2019-03-24T09:10:25.083Z,13.80
2019-03-24T09:12:54.383Z,13.80
2019-03-24T09:15:23.673Z,13.70
2019-03-24T09:17:52.983Z,13.80
2019-03-24T09:20:22.257Z,13.70
2019-03-24T09:22:51.606Z,13.90
2019-03-24T09:25:30.210Z,13.90
2019-03-24T09:27:59.831Z,13.80
2019-03-24T09:30:30.757Z,14.50
2019-03-24T09:33:00.142Z,14.70
2019-03-24T09:35:29.481Z,14.60
2019-03-24T09:37:58.868Z,14.70
2019-03-24T09:40:29.718Z,14.80
2019-03-24T09:43:00.292Z,15.00
2019-03-24T09:45:30.713Z,15.50
2019-03-24T09:48:00.258Z,15.50
2019-03-24T09:50:29.802Z,15.60
2019-03-24T09:55:34.773Z,15.70
2019-03-24T09:58:05.046Z,15.10
2019-03-24T10:00:34.394Z,15.10
2019-03-24T10:03:03.786Z,15.00
2019-03-24T10:05:33.074Z,14.60
2019-03-24T10:08:03.057Z,14.40
2019-03-24T10:10:33.402Z,14.50
2019-03-24T10:13:02.784Z,14.70
2019-03-24T10:15:32.095Z,14.60
2019-03-24T10:18:01.552Z,14.60
2019-03-24T10:20:31.110Z,14.60
2019-03-24T10:23:00.625Z,14.70
2019-03-24T10:25:30.101Z,15.00
2019-03-24T10:27:59.714Z,15.10
2019-03-24T10:30:29.361Z,15.00
2019-03-24T10:32:58.830Z,15.00
2019-03-24T10:35:30.305Z,15.10
2019-03-24T10:38:00.522Z,15.10
2019-03-24T10:40:37.750Z,14.90
2019-03-24T10:43:08.761Z,14.80
2019-03-24T10:45:40.009Z,14.80
2019-03-24T10:48:09.749Z,14.80
2019-03-24T10:50:39.332Z,14.80
2019-03-24T10:53:12.715Z,14.80
2019-03-24T10:55:42.051Z,14.70
2019-03-24T10:58:12.473Z,14.60
2019-03-24T11:00:43.295Z,14.70
2019-03-24T11:03:12.734Z,14.70
2019-03-24T11:05:42.090Z,14.40
2019-03-24T11:08:11.518Z,14.30
2019-03-24T11:10:40.986Z,14.50
2019-03-24T11:13:10.441Z,14.80
2019-03-24T11:15:39.726Z,15.00
2019-03-24T11:18:09.043Z,14.80
2019-03-24T11:20:38.341Z,14.80
2019-03-24T11:23:07.710Z,15.00
2019-03-24T11:25:36.999Z,15.10
2019-03-24T11:28:06.301Z,15.30
2019-03-24T11:30:35.595Z,15.50
2019-03-24T11:33:12.569Z,15.60
2019-03-24T11:35:43.682Z,15.40
2019-03-24T11:38:18.816Z,15.30
2019-03-24T11:40:49.959Z,15.20
2019-03-24T11:43:19.536Z,15.20
2019-03-24T11:45:48.963Z,15.70
2019-03-24T11:48:26.680Z,16.00
2019-03-24T11:50:56.234Z,16.20
2019-03-24T11:53:27.993Z,16.20
2019-03-24T11:55:57.606Z,16.20
2019-03-24T11:58:28.880Z,16.00
2019-03-24T12:00:59.856Z,15.90
2019-03-24T12:03:32.758Z,15.70
2019-03-24T12:06:02.196Z,15.70
2019-03-24T12:08:31.540Z,15.90
2019-03-24T12:11:00.878Z,16.10
2019-03-24T12:13:30.202Z,16.20
2019-03-24T12:15:59.495Z,16.30
2019-03-24T12:18:28.782Z,16.30
2019-03-24T12:20:58.102Z,16.40
2019-03-24T12:23:27.387Z,16.40
2019-03-24T12:25:56.694Z,16.40
2019-03-24T12:28:25.982Z,16.40
2019-03-24T12:30:55.771Z,16.40
2019-03-24T12:33:25.104Z,16.40
2019-03-24T12:35:54.407Z,16.50
2019-03-24T12:38:23.700Z,16.50
2019-03-24T12:40:53.018Z,16.30
2019-03-24T12:43:22.304Z,16.40
2019-03-24T12:45:51.610Z,16.40
2019-03-24T12:48:20.991Z,16.50
2019-03-24T12:50:51.151Z,16.50
2019-03-24T12:53:20.441Z,15.90
2019-03-24T12:55:49.754Z,15.80
2019-03-24T12:58:20.165Z,15.50
2019-03-24T13:00:49.484Z,15.50
2019-03-24T13:03:19.002Z,15.60
2019-03-24T13:05:48.297Z,15.70
2019-03-24T13:08:17.755Z,15.90
2019-03-24T13:10:47.482Z,16.00
2019-03-24T13:13:16.859Z,16.10
2019-03-24T13:15:46.536Z,16.20
2019-03-24T13:18:15.951Z,16.40
2019-03-24T13:20:45.297Z,16.60
2019-03-24T13:23:14.650Z,16.70
2019-03-24T13:25:43.968Z,16.70
2019-03-24T13:28:13.244Z,16.90
2019-03-24T13:30:42.556Z,16.60
2019-03-24T13:33:11.843Z,16.30
2019-03-24T13:35:41.230Z,16.20
2019-03-24T13:38:10.519Z,16.10
2019-03-24T13:40:39.943Z,16.20
2019-03-24T13:43:09.230Z,16.00
2019-03-24T13:45:38.536Z,16.00
2019-03-24T13:48:07.822Z,16.00
2019-03-24T13:50:37.130Z,16.10
2019-03-24T13:53:06.438Z,14.60
2019-03-24T13:55:35.742Z,15.70
2019-03-24T13:58:06.115Z,15.60
2019-03-24T14:00:35.410Z,15.60
2019-03-24T14:03:04.793Z,15.50
2019-03-24T14:05:34.079Z,15.50
2019-03-24T14:08:03.390Z,15.80
2019-03-24T14:10:32.706Z,16.20
2019-03-24T14:13:01.989Z,16.00
2019-03-24T14:15:32.187Z,16.10
2019-03-24T14:18:01.528Z,15.90
2019-03-24T14:20:42.454Z,15.70
2019-03-24T14:23:02.017Z,15.50
2019-03-24T14:25:31.307Z,15.60
2019-03-24T14:28:00.621Z,15.70
2019-03-24T14:30:42.994Z,15.70
2019-03-24T14:33:15.150Z,15.80
2019-03-24T14:35:44.498Z,15.80
2019-03-24T14:38:13.817Z,15.40
2019-03-24T14:40:43.102Z,15.30
2019-03-24T14:43:12.485Z,15.40
2019-03-24T14:45:41.802Z,15.50
2019-03-24T14:48:13.592Z,15.60
2019-03-24T14:50:53.613Z,15.70
2019-03-24T14:53:13.887Z,15.80
2019-03-24T14:55:43.170Z,16.00
2019-03-24T14:58:12.485Z,16.00
2019-03-24T15:00:43.005Z,16.00
2019-03-24T15:03:12.391Z,15.80
2019-03-24T15:05:41.774Z,15.50
2019-03-24T15:08:11.324Z,15.40
2019-03-24T15:10:40.708Z,15.40
2019-03-24T15:13:10.086Z,15.50
2019-03-24T15:15:39.439Z,16.80
2019-03-24T15:18:08.741Z,15.50
2019-03-24T15:20:38.032Z,15.20
2019-03-24T15:23:07.342Z,14.80
2019-03-24T15:25:36.635Z,14.70
2019-03-24T15:28:06.168Z,14.70
2019-03-24T15:30:35.447Z,14.60
2019-03-24T15:33:04.899Z,14.50
2019-03-24T15:35:34.247Z,14.40
2019-03-24T15:38:08.409Z,14.40
2019-03-24T15:40:34.542Z,14.40
2019-03-24T15:43:03.914Z,14.30
2019-03-24T15:45:33.224Z,14.40
2019-03-24T15:48:02.552Z,14.40
2019-03-24T15:50:31.844Z,14.40
2019-03-24T15:53:01.155Z,14.30
2019-03-24T15:55:30.442Z,14.00
2019-03-24T15:57:59.814Z,13.90
2019-03-24T16:00:40.394Z,13.90
2019-03-24T16:03:09.788Z,13.90
2019-03-24T16:05:40.138Z,13.80
2019-03-24T16:08:09.551Z,13.60
2019-03-24T16:10:39.836Z,13.40
2019-03-24T16:13:09.203Z,13.40
2019-03-24T16:15:38.591Z,13.30
2019-03-24T16:18:08.890Z,13.30
2019-03-24T16:20:38.208Z,13.30
2019-03-24T16:23:07.550Z,13.30
2019-03-24T16:25:36.874Z,13.30
2019-03-24T16:28:06.241Z,13.20
2019-03-24T16:30:35.616Z,13.00
2019-03-24T16:33:05.038Z,13.10
2019-03-24T16:35:34.349Z,13.00
2019-03-24T16:38:03.626Z,13.10
2019-03-24T16:40:33.154Z,13.00
2019-03-24T16:43:02.459Z,13.10
2019-03-24T16:45:31.798Z,13.10
2019-03-24T16:48:01.069Z,13.10
2019-03-24T16:50:30.458Z,13.10
2019-03-24T16:52:59.752Z,13.10
2019-03-24T16:55:29.065Z,13.00
2019-03-24T16:57:58.392Z,13.90
2019-03-24T17:00:27.762Z,12.90
2019-03-24T17:02:57.047Z,12.90
2019-03-24T17:05:26.355Z,13.00
2019-03-24T17:07:55.642Z,13.00
2019-03-24T17:10:24.950Z,12.90
2019-03-24T17:12:54.238Z,12.90
2019-03-24T17:15:23.596Z,12.90
2019-03-24T17:17:52.884Z,12.90
2019-03-24T17:20:22.191Z,12.80
2019-03-24T17:22:51.551Z,12.80
2019-03-24T17:25:20.864Z,12.80
2019-03-24T17:27:50.150Z,12.80
2019-03-24T17:30:19.730Z,12.80
2019-03-24T17:32:49.018Z,12.80
2019-03-24T17:35:18.322Z,12.80
2019-03-24T17:37:47.611Z,12.70
2019-03-24T17:40:17.280Z,12.70
2019-03-24T17:42:46.547Z,12.50
2019-03-24T17:45:16.579Z,12.30
2019-03-24T17:47:46.945Z,12.30
2019-03-24T17:50:16.584Z,12.30
2019-03-24T17:52:45.951Z,12.20
2019-03-24T17:55:15.332Z,12.20
2019-03-24T17:57:44.641Z,12.30
2019-03-24T18:00:18.291Z,12.30
2019-03-24T18:02:47.655Z,12.30
2019-03-24T18:05:17.179Z,12.20
2019-03-24T18:07:46.579Z,12.00
2019-03-24T18:10:15.886Z,11.90
2019-03-24T18:12:45.174Z,11.80
2019-03-24T18:15:14.824Z,11.80
2019-03-24T18:17:44.186Z,11.70
2019-03-24T18:20:16.560Z,11.60
2019-03-24T18:22:45.919Z,11.40
2019-03-24T18:25:15.278Z,11.40
2019-03-24T18:27:44.570Z,11.30
2019-03-24T18:30:14.455Z,11.10
2019-03-24T18:32:43.778Z,10.80
2019-03-24T18:35:13.291Z,10.70
2019-03-24T18:37:42.571Z,10.60
2019-03-24T18:40:12.226Z,10.40
2019-03-24T18:42:43.286Z,10.30
2019-03-24T18:45:15.991Z,10.10
2019-03-24T18:47:45.274Z,10.00
2019-03-24T18:50:15.214Z,9.90
2019-03-24T18:52:44.502Z,9.90
2019-03-24T18:55:14.238Z,9.80
2019-03-24T18:57:43.515Z,9.70
2019-03-24T19:00:14.563Z,9.70
2019-03-24T19:02:43.863Z,9.60
2019-03-24T19:05:13.377Z,9.60
2019-03-24T19:07:42.654Z,9.50
2019-03-24T19:10:13.572Z,9.50
2019-03-24T19:12:42.997Z,9.50
2019-03-24T19:15:14.398Z,9.40
2019-03-24T19:17:43.752Z,9.40
2019-03-24T19:20:13.402Z,9.30
2019-03-24T19:22:42.827Z,9.30
2019-03-24T19:25:12.283Z,8.20
2019-03-24T19:27:41.730Z,9.30
2019-03-24T19:30:15.915Z,9.20
2019-03-24T19:32:45.334Z,9.10
2019-03-24T19:35:14.719Z,9.10
2019-03-24T19:37:45.836Z,9.00
2019-03-24T19:40:29.402Z,9.00
2019-03-24T19:42:58.684Z,9.10
2019-03-24T19:45:27.994Z,9.10
2019-03-24T19:47:57.510Z,9.00
2019-03-24T19:50:27.047Z,9.00
2019-03-24T19:52:56.369Z,9.20
2019-03-24T19:55:25.651Z,9.30
2019-03-24T19:57:54.949Z,9.60
2019-03-24T20:00:24.227Z,9.50
2019-03-24T20:02:53.617Z,9.50
2019-03-24T20:05:22.962Z,9.50
2019-03-24T20:07:52.341Z,9.70
2019-03-24T20:10:21.619Z,9.80
2019-03-24T20:12:50.917Z,9.70
2019-03-24T20:15:20.266Z,9.60
2019-03-24T20:17:49.739Z,9.70
2019-03-24T20:20:19.094Z,9.60
2019-03-24T20:22:56.534Z,9.50
2019-03-24T20:25:19.365Z,9.50
2019-03-24T20:27:48.665Z,9.40
2019-03-24T20:30:18.075Z,9.00
2019-03-24T20:32:47.450Z,9.50
2019-03-24T20:35:16.727Z,9.40
2019-03-24T20:37:47.142Z,9.40
2019-03-24T20:40:17.002Z,9.30
2019-03-24T20:42:46.303Z,9.10
2019-03-24T20:45:15.711Z,8.90
2019-03-24T20:47:45.013Z,9.00
2019-03-24T20:50:14.771Z,9.10
2019-03-24T20:52:44.078Z,9.10
2019-03-24T20:55:13.486Z,9.00
2019-03-24T20:57:42.926Z,8.90
2019-03-24T21:00:13.354Z,8.90
2019-03-24T21:02:42.650Z,8.80
2019-03-24T21:05:11.995Z,8.80
2019-03-24T21:07:41.302Z,8.80
2019-03-24T21:10:10.814Z,8.90
2019-03-24T21:12:40.187Z,8.70
2019-03-24T21:15:11.577Z,8.50
2019-03-24T21:17:41.094Z,8.20
2019-03-24T21:20:10.610Z,8.20
2019-03-24T21:22:39.982Z,8.00
2019-03-24T21:25:09.619Z,7.80
2019-03-24T21:27:38.902Z,7.70
2019-03-24T21:30:20.586Z,7.50
2019-03-24T21:32:51.514Z,7.50
2019-03-24T21:35:21.005Z,7.40
2019-03-24T21:37:50.351Z,7.30
2019-03-24T21:40:19.648Z,7.20
2019-03-24T21:42:48.917Z,7.10
2019-03-24T21:45:18.218Z,7.10
2019-03-24T21:47:47.495Z,7.00
2019-03-24T21:50:16.802Z,7.10
2019-03-24T21:52:46.070Z,7.20
2019-03-24T21:55:15.362Z,7.30
2019-03-24T21:57:44.654Z,7.20
2019-03-24T22:00:15.694Z,7.20
2019-03-24T22:02:45.265Z,7.00
2019-03-24T22:05:14.537Z,7.10
2019-03-24T22:07:43.830Z,7.10
2019-03-24T22:10:13.283Z,7.20
2019-03-24T22:12:42.549Z,7.30
2019-03-24T22:15:12.091Z,7.30
2019-03-24T22:17:41.375Z,7.20
2019-03-24T22:20:10.768Z,7.20
2019-03-24T22:22:41.053Z,7.30
2019-03-24T22:25:10.623Z,7.20
2019-03-24T22:27:39.895Z,7.20
2019-03-24T22:30:09.543Z,7.20
2019-03-24T22:32:38.857Z,7.20
2019-03-24T22:35:08.198Z,7.20
2019-03-24T22:37:37.550Z,7.20
2019-03-24T22:40:09.648Z,7.20
2019-03-24T22:42:38.999Z,7.00
2019-03-24T22:45:08.418Z,6.80
2019-03-24T22:47:37.693Z,6.60
2019-03-24T22:50:09.913Z,6.60
2019-03-24T22:52:39.269Z,6.50
2019-03-24T22:55:09.997Z,6.40
2019-03-24T22:57:39.290Z,6.30
2019-03-24T23:00:15.790Z,6.20
2019-03-24T23:02:46.699Z,6.10
2019-03-24T23:05:16.036Z,6.00
2019-03-24T23:07:45.382Z,6.00
2019-03-24T23:10:14.722Z,5.90
2019-03-24T23:12:44.002Z,5.90
2019-03-24T23:15:13.298Z,5.80
2019-03-24T23:17:42.667Z,5.80
2019-03-24T23:20:12.475Z,5.70
2019-03-24T23:22:41.767Z,5.70
2019-03-24T23:25:11.281Z,5.60
2019-03-24T23:27:40.553Z,5.60
2019-03-24T23:30:10.454Z,5.50
2019-03-24T23:32:39.725Z,5.50
2019-03-24T23:35:09.096Z,5.40
2019-03-24T23:37:38.361Z,5.40
2019-03-24T23:40:07.898Z,5.40
2019-03-24T23:42:37.173Z,5.40
2019-03-24T23:45:08.146Z,5.40
2019-03-24T23:47:37.486Z,5.50
2019-03-24T23:50:07.025Z,5.50
2019-03-24T23:52:36.291Z,5.50
2019-03-24T23:55:05.961Z,5.40
2019-03-24T23:57:35.234Z,5.30
